sensor_id;sensor_type;location;lat;lon;timestamp;P1;durP1;ratioP1;P2;durP2;ratioP2
44116;SDS011;29781;49.480;8.512;2022-08-19T00:02:06;21.67;;;18.20;;
44116;SDS011;29781;49.480;8.512;2022-08-19T00:04:32;20.13;;;18.02;;
44116;SDS011;29781;49.480;8.512;2022-08-19T00:07:03;18.37;;;16.47;;
44116;SDS011;29781;49.480;8.512;2022-08-19T00:09:30;18.80;;;16.80;;
44116;SDS011;29781;49.480;8.512;2022-08-19T00:11:56;17.88;;;15.98;;
44116;SDS011;29781;49.480;8.512;2022-08-19T00:14:24;22.35;;;17.65;;
44116;SDS011;29781;49.480;8.512;2022-08-19T00:16:50;19.35;;;16.95;;
44116;SDS011;29781;49.480;8.512;2022-08-19T00:19:19;19.92;;;17.83;;
44116;SDS011;29781;49.480;8.512;2022-08-19T00:21:45;20.45;;;17.08;;
44116;SDS011;29781;49.480;8.512;2022-08-19T00:24:12;22.52;;;17.98;;
44116;SDS011;29781;49.480;8.512;2022-08-19T00:26:39;25.95;;;18.05;;
44116;SDS011;29781;49.480;8.512;2022-08-19T00:29:10;21.08;;;18.23;;
44116;SDS011;29781;49.480;8.512;2022-08-19T00:31:37;20.63;;;18.38;;
44116;SDS011;29781;49.480;8.512;2022-08-19T00:34:04;29.02;;;18.40;;
44116;SDS011;29781;49.480;8.512;2022-08-19T00:36:29;19.90;;;17.23;;
44116;SDS011;29781;49.480;8.512;2022-08-19T00:38:58;19.75;;;17.65;;
44116;SDS011;29781;49.480;8.512;2022-08-19T00:41:25;19.77;;;17.83;;
44116;SDS011;29781;49.480;8.512;2022-08-19T00:46:31;19.70;;;17.38;;
44116;SDS011;29781;49.480;8.512;2022-08-19T00:48:58;19.30;;;17.13;;
44116;SDS011;29781;49.480;8.512;2022-08-19T00:51:25;20.13;;;17.60;;
44116;SDS011;29781;49.480;8.512;2022-08-19T00:53:55;20.30;;;18.10;;
44116;SDS011;29781;49.480;8.512;2022-08-19T00:56:23;20.13;;;17.95;;
44116;SDS011;29781;49.480;8.512;2022-08-19T00:58:51;19.15;;;17.20;;
44116;SDS011;29781;49.480;8.512;2022-08-19T01:01:19;20.65;;;17.77;;
44116;SDS011;29781;49.480;8.512;2022-08-19T01:03:45;20.45;;;17.55;;
44116;SDS011;29781;49.480;8.512;2022-08-19T01:06:10;19.35;;;17.33;;
44116;SDS011;29781;49.480;8.512;2022-08-19T01:08:36;20.60;;;18.60;;
44116;SDS011;29781;49.480;8.512;2022-08-19T01:11:02;23.40;;;17.27;;
44116;SDS011;29781;49.480;8.512;2022-08-19T01:13:30;19.52;;;17.42;;
44116;SDS011;29781;49.480;8.512;2022-08-19T01:16:00;19.63;;;17.67;;
44116;SDS011;29781;49.480;8.512;2022-08-19T01:18:29;18.33;;;16.40;;
44116;SDS011;29781;49.480;8.512;2022-08-19T01:20:58;20.35;;;17.55;;
44116;SDS011;29781;49.480;8.512;2022-08-19T01:23:26;20.33;;;17.95;;
44116;SDS011;29781;49.480;8.512;2022-08-19T01:26:08;20.65;;;18.42;;
44116;SDS011;29781;49.480;8.512;2022-08-19T01:28:40;18.75;;;16.95;;
44116;SDS011;29781;49.480;8.512;2022-08-19T01:31:07;20.45;;;18.30;;
44116;SDS011;29781;49.480;8.512;2022-08-19T01:33:36;24.25;;;18.30;;
44116;SDS011;29781;49.480;8.512;2022-08-19T01:36:10;20.02;;;18.05;;
44116;SDS011;29781;49.480;8.512;2022-08-19T01:38:39;20.02;;;17.92;;
44116;SDS011;29781;49.480;8.512;2022-08-19T01:41:06;21.15;;;18.27;;
44116;SDS011;29781;49.480;8.512;2022-08-19T01:43:32;20.42;;;18.25;;
44116;SDS011;29781;49.480;8.512;2022-08-19T01:45:59;20.45;;;18.45;;
44116;SDS011;29781;49.480;8.512;2022-08-19T01:48:25;20.33;;;18.20;;
44116;SDS011;29781;49.480;8.512;2022-08-19T01:50:54;22.05;;;17.90;;
44116;SDS011;29781;49.480;8.512;2022-08-19T01:53:20;22.00;;;18.90;;
44116;SDS011;29781;49.480;8.512;2022-08-19T01:55:46;20.85;;;18.17;;
44116;SDS011;29781;49.480;8.512;2022-08-19T01:58:18;22.13;;;18.08;;
44116;SDS011;29781;49.480;8.512;2022-08-19T02:00:46;20.73;;;18.52;;
44116;SDS011;29781;49.480;8.512;2022-08-19T02:03:12;19.92;;;17.83;;
44116;SDS011;29781;49.480;8.512;2022-08-19T02:05:38;21.23;;;18.95;;
44116;SDS011;29781;49.480;8.512;2022-08-19T02:08:05;20.42;;;18.42;;
44116;SDS011;29781;49.480;8.512;2022-08-19T02:10:31;21.95;;;19.17;;
44116;SDS011;29781;49.480;8.512;2022-08-19T02:12:57;22.17;;;19.10;;
44116;SDS011;29781;49.480;8.512;2022-08-19T02:15:23;21.90;;;19.67;;
44116;SDS011;29781;49.480;8.512;2022-08-19T02:17:50;21.98;;;19.75;;
44116;SDS011;29781;49.480;8.512;2022-08-19T02:20:16;23.15;;;19.15;;
44116;SDS011;29781;49.480;8.512;2022-08-19T02:22:42;19.83;;;17.83;;
44116;SDS011;29781;49.480;8.512;2022-08-19T02:25:09;21.70;;;19.40;;
44116;SDS011;29781;49.480;8.512;2022-08-19T02:27:39;19.73;;;17.63;;
44116;SDS011;29781;49.480;8.512;2022-08-19T02:30:06;20.73;;;18.58;;
44116;SDS011;29781;49.480;8.512;2022-08-19T02:32:34;22.20;;;18.17;;
44116;SDS011;29781;49.480;8.512;2022-08-19T02:35:00;22.33;;;20.15;;
44116;SDS011;29781;49.480;8.512;2022-08-19T02:37:26;22.67;;;20.27;;
44116;SDS011;29781;49.480;8.512;2022-08-19T02:40:11;23.58;;;19.45;;
44116;SDS011;29781;49.480;8.512;2022-08-19T02:42:36;21.92;;;19.55;;
44116;SDS011;29781;49.480;8.512;2022-08-19T02:45:02;21.85;;;19.70;;
44116;SDS011;29781;49.480;8.512;2022-08-19T02:47:30;23.10;;;20.60;;
44116;SDS011;29781;49.480;8.512;2022-08-19T02:49:56;21.38;;;19.23;;
44116;SDS011;29781;49.480;8.512;2022-08-19T02:52:22;22.10;;;19.90;;
44116;SDS011;29781;49.480;8.512;2022-08-19T02:54:48;20.98;;;18.30;;
44116;SDS011;29781;49.480;8.512;2022-08-19T02:57:14;19.88;;;17.75;;
44116;SDS011;29781;49.480;8.512;2022-08-19T02:59:40;21.52;;;19.13;;
44116;SDS011;29781;49.480;8.512;2022-08-19T03:02:05;22.58;;;18.95;;
44116;SDS011;29781;49.480;8.512;2022-08-19T03:04:31;19.65;;;17.65;;
44116;SDS011;29781;49.480;8.512;2022-08-19T03:06:56;20.77;;;18.67;;
44116;SDS011;29781;49.480;8.512;2022-08-19T03:09:22;23.25;;;19.80;;
44116;SDS011;29781;49.480;8.512;2022-08-19T03:11:48;20.13;;;17.88;;
44116;SDS011;29781;49.480;8.512;2022-08-19T03:14:13;19.77;;;17.65;;
44116;SDS011;29781;49.480;8.512;2022-08-19T03:16:43;19.15;;;17.25;;
44116;SDS011;29781;49.480;8.512;2022-08-19T03:19:10;21.17;;;17.25;;
44116;SDS011;29781;49.480;8.512;2022-08-19T03:21:37;23.30;;;18.08;;
44116;SDS011;29781;49.480;8.512;2022-08-19T03:24:04;19.73;;;17.13;;
44116;SDS011;29781;49.480;8.512;2022-08-19T03:26:32;22.90;;;18.77;;
44116;SDS011;29781;49.480;8.512;2022-08-19T03:29:01;19.70;;;17.60;;
44116;SDS011;29781;49.480;8.512;2022-08-19T03:31:28;21.70;;;19.40;;
44116;SDS011;29781;49.480;8.512;2022-08-19T03:33:54;20.30;;;18.10;;
44116;SDS011;29781;49.480;8.512;2022-08-19T03:36:21;23.80;;;20.00;;
44116;SDS011;29781;49.480;8.512;2022-08-19T03:38:50;22.02;;;19.60;;
44116;SDS011;29781;49.480;8.512;2022-08-19T03:41:20;22.88;;;20.38;;
44116;SDS011;29781;49.480;8.512;2022-08-19T03:43:47;22.95;;;20.65;;
44116;SDS011;29781;49.480;8.512;2022-08-19T03:46:23;22.67;;;19.77;;
44116;SDS011;29781;49.480;8.512;2022-08-19T03:48:55;26.45;;;21.05;;
44116;SDS011;29781;49.480;8.512;2022-08-19T03:51:27;22.85;;;19.63;;
44116;SDS011;29781;49.480;8.512;2022-08-19T03:53:57;20.67;;;18.65;;
44116;SDS011;29781;49.480;8.512;2022-08-19T03:56:24;22.15;;;19.80;;
44116;SDS011;29781;49.480;8.512;2022-08-19T03:58:52;23.10;;;20.40;;
44116;SDS011;29781;49.480;8.512;2022-08-19T04:01:20;20.83;;;18.58;;
44116;SDS011;29781;49.480;8.512;2022-08-19T04:03:47;20.77;;;18.77;;
44116;SDS011;29781;49.480;8.512;2022-08-19T04:06:17;21.08;;;19.08;;
44116;SDS011;29781;49.480;8.512;2022-08-19T04:08:46;19.08;;;17.17;;
44116;SDS011;29781;49.480;8.512;2022-08-19T04:11:14;20.17;;;18.13;;
44116;SDS011;29781;49.480;8.512;2022-08-19T04:13:41;21.38;;;19.20;;
44116;SDS011;29781;49.480;8.512;2022-08-19T04:16:09;18.95;;;17.05;;
44116;SDS011;29781;49.480;8.512;2022-08-19T04:18:35;19.92;;;17.85;;
44116;SDS011;29781;49.480;8.512;2022-08-19T04:21:03;19.52;;;17.42;;
44116;SDS011;29781;49.480;8.512;2022-08-19T04:23:29;19.48;;;17.45;;
44116;SDS011;29781;49.480;8.512;2022-08-19T04:25:55;19.27;;;17.27;;
44116;SDS011;29781;49.480;8.512;2022-08-19T04:28:21;19.25;;;17.38;;
44116;SDS011;29781;49.480;8.512;2022-08-19T04:30:49;20.20;;;17.92;;
44116;SDS011;29781;49.480;8.512;2022-08-19T04:35:46;19.30;;;17.25;;
44116;SDS011;29781;49.480;8.512;2022-08-19T04:38:13;18.95;;;16.40;;
44116;SDS011;29781;49.480;8.512;2022-08-19T04:40:46;19.48;;;16.70;;
44116;SDS011;29781;49.480;8.512;2022-08-19T04:45:58;22.58;;;18.17;;
44116;SDS011;29781;49.480;8.512;2022-08-19T04:48:29;20.10;;;17.27;;
44116;SDS011;29781;49.480;8.512;2022-08-19T04:50:56;18.48;;;16.45;;
44116;SDS011;29781;49.480;8.512;2022-08-19T04:53:26;28.10;;;18.20;;
44116;SDS011;29781;49.480;8.512;2022-08-19T04:55:56;19.88;;;17.42;;
44116;SDS011;29781;49.480;8.512;2022-08-19T04:58:24;21.38;;;18.08;;
44116;SDS011;29781;49.480;8.512;2022-08-19T05:00:51;22.20;;;17.67;;
44116;SDS011;29781;49.480;8.512;2022-08-19T05:03:17;23.00;;;18.10;;
44116;SDS011;29781;49.480;8.512;2022-08-19T05:05:44;19.60;;;17.25;;
44116;SDS011;29781;49.480;8.512;2022-08-19T05:08:13;20.65;;;18.55;;
44116;SDS011;29781;49.480;8.512;2022-08-19T05:10:44;23.70;;;18.00;;
44116;SDS011;29781;49.480;8.512;2022-08-19T05:13:15;21.77;;;19.25;;
44116;SDS011;29781;49.480;8.512;2022-08-19T05:15:42;22.17;;;19.60;;
44116;SDS011;29781;49.480;8.512;2022-08-19T05:18:09;25.75;;;19.45;;
44116;SDS011;29781;49.480;8.512;2022-08-19T05:20:53;22.17;;;19.85;;
44116;SDS011;29781;49.480;8.512;2022-08-19T05:23:37;24.40;;;19.52;;
44116;SDS011;29781;49.480;8.512;2022-08-19T05:26:03;26.80;;;19.52;;
44116;SDS011;29781;49.480;8.512;2022-08-19T05:28:29;23.38;;;19.15;;
44116;SDS011;29781;49.480;8.512;2022-08-19T05:30:55;21.48;;;16.67;;
44116;SDS011;29781;49.480;8.512;2022-08-19T05:33:21;19.35;;;17.38;;
44116;SDS011;29781;49.480;8.512;2022-08-19T05:35:49;20.98;;;18.77;;
44116;SDS011;29781;49.480;8.512;2022-08-19T05:38:15;25.25;;;17.70;;
44116;SDS011;29781;49.480;8.512;2022-08-19T05:40:42;19.63;;;16.70;;
44116;SDS011;29781;49.480;8.512;2022-08-19T05:43:11;18.30;;;16.30;;
44116;SDS011;29781;49.480;8.512;2022-08-19T05:45:40;22.00;;;18.05;;
44116;SDS011;29781;49.480;8.512;2022-08-19T05:48:07;24.40;;;16.27;;
44116;SDS011;29781;49.480;8.512;2022-08-19T05:50:36;27.98;;;16.63;;
44116;SDS011;29781;49.480;8.512;2022-08-19T05:53:02;21.50;;;17.02;;
44116;SDS011;29781;49.480;8.512;2022-08-19T05:55:28;19.52;;;16.30;;
44116;SDS011;29781;49.480;8.512;2022-08-19T05:57:54;18.92;;;16.92;;
44116;SDS011;29781;49.480;8.512;2022-08-19T06:00:20;19.73;;;15.82;;
44116;SDS011;29781;49.480;8.512;2022-08-19T06:02:45;17.70;;;15.80;;
44116;SDS011;29781;49.480;8.512;2022-08-19T06:05:11;20.02;;;16.55;;
44116;SDS011;29781;49.480;8.512;2022-08-19T06:07:38;17.23;;;15.45;;
44116;SDS011;29781;49.480;8.512;2022-08-19T06:10:05;15.88;;;14.13;;
44116;SDS011;29781;49.480;8.512;2022-08-19T06:12:33;20.45;;;15.80;;
44116;SDS011;29781;49.480;8.512;2022-08-19T06:15:02;20.20;;;15.70;;
44116;SDS011;29781;49.480;8.512;2022-08-19T06:17:34;20.83;;;14.60;;
44116;SDS011;29781;49.480;8.512;2022-08-19T06:20:01;20.58;;;15.00;;
44116;SDS011;29781;49.480;8.512;2022-08-19T06:24:56;19.70;;;15.57;;
44116;SDS011;29781;49.480;8.512;2022-08-19T06:27:22;18.60;;;13.85;;
44116;SDS011;29781;49.480;8.512;2022-08-19T06:29:48;16.48;;;14.77;;
44116;SDS011;29781;49.480;8.512;2022-08-19T06:32:15;16.95;;;14.75;;
44116;SDS011;29781;49.480;8.512;2022-08-19T06:34:42;19.70;;;14.43;;
44116;SDS011;29781;49.480;8.512;2022-08-19T06:37:08;17.10;;;14.43;;
44116;SDS011;29781;49.480;8.512;2022-08-19T06:39:35;22.15;;;15.65;;
44116;SDS011;29781;49.480;8.512;2022-08-19T06:42:04;20.05;;;14.10;;
44116;SDS011;29781;49.480;8.512;2022-08-19T06:44:33;20.23;;;14.40;;
44116;SDS011;29781;49.480;8.512;2022-08-19T06:47:05;14.20;;;12.80;;
44116;SDS011;29781;49.480;8.512;2022-08-19T06:49:33;16.02;;;13.77;;
44116;SDS011;29781;49.480;8.512;2022-08-19T06:52:00;19.67;;;14.57;;
44116;SDS011;29781;49.480;8.512;2022-08-19T06:54:26;14.98;;;13.18;;
44116;SDS011;29781;49.480;8.512;2022-08-19T06:56:53;16.65;;;13.48;;
44116;SDS011;29781;49.480;8.512;2022-08-19T06:59:20;20.45;;;13.50;;
44116;SDS011;29781;49.480;8.512;2022-08-19T07:01:51;16.15;;;13.68;;
44116;SDS011;29781;49.480;8.512;2022-08-19T07:04:19;20.85;;;9.10;;
44116;SDS011;29781;49.480;8.512;2022-08-19T07:06:48;14.57;;;13.15;;
44116;SDS011;29781;49.480;8.512;2022-08-19T07:09:15;15.75;;;13.10;;
44116;SDS011;29781;49.480;8.512;2022-08-19T07:11:46;19.83;;;12.73;;
44116;SDS011;29781;49.480;8.512;2022-08-19T07:14:14;15.77;;;12.40;;
44116;SDS011;29781;49.480;8.512;2022-08-19T07:16:42;14.38;;;12.88;;
44116;SDS011;29781;49.480;8.512;2022-08-19T07:19:10;14.55;;;13.15;;
44116;SDS011;29781;49.480;8.512;2022-08-19T07:21:37;15.98;;;12.63;;
44116;SDS011;29781;49.480;8.512;2022-08-19T07:24:03;12.98;;;11.40;;
44116;SDS011;29781;49.480;8.512;2022-08-19T07:26:30;15.63;;;12.57;;
44116;SDS011;29781;49.480;8.512;2022-08-19T07:29:02;17.92;;;12.00;;
44116;SDS011;29781;49.480;8.512;2022-08-19T07:31:28;13.88;;;11.65;;
44116;SDS011;29781;49.480;8.512;2022-08-19T07:33:55;13.00;;;11.80;;
44116;SDS011;29781;49.480;8.512;2022-08-19T07:36:24;21.73;;;12.73;;
44116;SDS011;29781;49.480;8.512;2022-08-19T07:38:55;14.55;;;12.82;;
44116;SDS011;29781;49.480;8.512;2022-08-19T07:41:21;21.58;;;12.63;;
44116;SDS011;29781;49.480;8.512;2022-08-19T07:43:49;15.18;;;12.93;;
44116;SDS011;29781;49.480;8.512;2022-08-19T07:46:16;14.73;;;12.05;;
44116;SDS011;29781;49.480;8.512;2022-08-19T07:48:45;16.35;;;12.30;;
44116;SDS011;29781;49.480;8.512;2022-08-19T07:51:13;15.55;;;12.57;;
44116;SDS011;29781;49.480;8.512;2022-08-19T07:53:41;14.40;;;12.90;;
44116;SDS011;29781;49.480;8.512;2022-08-19T07:56:06;20.67;;;12.57;;
44116;SDS011;29781;49.480;8.512;2022-08-19T07:58:34;14.70;;;12.77;;
44116;SDS011;29781;49.480;8.512;2022-08-19T08:01:01;13.65;;;11.40;;
44116;SDS011;29781;49.480;8.512;2022-08-19T08:03:29;11.30;;;10.23;;
44116;SDS011;29781;49.480;8.512;2022-08-19T08:06:14;13.55;;;10.20;;
44116;SDS011;29781;49.480;8.512;2022-08-19T08:08:59;11.60;;;10.00;;
44116;SDS011;29781;49.480;8.512;2022-08-19T08:11:42;12.82;;;9.48;;
44116;SDS011;29781;49.480;8.512;2022-08-19T08:14:15;12.23;;;9.18;;
44116;SDS011;29781;49.480;8.512;2022-08-19T08:16:47;12.43;;;10.05;;
44116;SDS011;29781;49.480;8.512;2022-08-19T08:19:14;10.95;;;9.85;;
44116;SDS011;29781;49.480;8.512;2022-08-19T08:21:41;9.40;;;8.45;;
44116;SDS011;29781;49.480;8.512;2022-08-19T08:24:08;9.90;;;8.45;;
44116;SDS011;29781;49.480;8.512;2022-08-19T08:26:34;9.27;;;7.70;;
44116;SDS011;29781;49.480;8.512;2022-08-19T08:29:00;10.18;;;9.10;;
44116;SDS011;29781;49.480;8.512;2022-08-19T08:31:26;11.02;;;8.35;;
44116;SDS011;29781;49.480;8.512;2022-08-19T08:33:52;11.25;;;8.10;;
44116;SDS011;29781;49.480;8.512;2022-08-19T08:36:18;9.20;;;8.02;;
44116;SDS011;29781;49.480;8.512;2022-08-19T08:38:44;9.38;;;7.50;;
44116;SDS011;29781;49.480;8.512;2022-08-19T08:41:20;8.40;;;6.78;;
44116;SDS011;29781;49.480;8.512;2022-08-19T08:43:55;9.80;;;7.25;;
44116;SDS011;29781;49.480;8.512;2022-08-19T08:52:10;8.02;;;6.30;;
44116;SDS011;29781;49.480;8.512;2022-08-19T08:55:00;8.43;;;7.10;;
44116;SDS011;29781;49.480;8.512;2022-08-19T08:57:35;9.00;;;6.82;;
44116;SDS011;29781;49.480;8.512;2022-08-19T09:00:10;11.98;;;7.50;;
44116;SDS011;29781;49.480;8.512;2022-08-19T09:02:39;8.18;;;7.07;;
44116;SDS011;29781;49.480;8.512;2022-08-19T09:05:05;10.32;;;7.25;;
44116;SDS011;29781;49.480;8.512;2022-08-19T09:13:12;8.40;;;7.60;;
44116;SDS011;29781;49.480;8.512;2022-08-19T09:16:00;9.18;;;7.88;;
44116;SDS011;29781;49.480;8.512;2022-08-19T09:18:44;8.75;;;7.55;;
44116;SDS011;29781;49.480;8.512;2022-08-19T09:21:18;9.90;;;8.55;;
44116;SDS011;29781;49.480;8.512;2022-08-19T09:23:45;9.82;;;7.85;;
44116;SDS011;29781;49.480;8.512;2022-08-19T09:26:15;10.27;;;7.03;;
44116;SDS011;29781;49.480;8.512;2022-08-19T09:28:43;7.82;;;6.93;;
44116;SDS011;29781;49.480;8.512;2022-08-19T09:31:10;8.93;;;7.13;;
44116;SDS011;29781;49.480;8.512;2022-08-19T09:33:37;9.48;;;7.68;;
44116;SDS011;29781;49.480;8.512;2022-08-19T09:36:05;9.13;;;8.32;;
44116;SDS011;29781;49.480;8.512;2022-08-19T09:38:32;9.73;;;8.07;;
44116;SDS011;29781;49.480;8.512;2022-08-19T09:41:03;12.90;;;8.55;;
44116;SDS011;29781;49.480;8.512;2022-08-19T09:43:40;17.23;;;9.13;;
44116;SDS011;29781;49.480;8.512;2022-08-19T09:46:08;10.10;;;9.10;;
44116;SDS011;29781;49.480;8.512;2022-08-19T09:48:38;10.48;;;8.68;;
44116;SDS011;29781;49.480;8.512;2022-08-19T09:51:07;9.77;;;8.20;;
44116;SDS011;29781;49.480;8.512;2022-08-19T09:53:34;12.23;;;8.48;;
44116;SDS011;29781;49.480;8.512;2022-08-19T09:56:01;9.48;;;7.57;;
44116;SDS011;29781;49.480;8.512;2022-08-19T09:58:27;7.07;;;6.38;;
44116;SDS011;29781;49.480;8.512;2022-08-19T10:00:56;9.30;;;7.63;;
44116;SDS011;29781;49.480;8.512;2022-08-19T10:03:23;9.57;;;6.32;;
44116;SDS011;29781;49.480;8.512;2022-08-19T10:05:50;7.80;;;7.00;;
44116;SDS011;29781;49.480;8.512;2022-08-19T10:08:17;8.55;;;7.75;;
44116;SDS011;29781;49.480;8.512;2022-08-19T10:10:47;10.35;;;7.22;;
44116;SDS011;29781;49.480;8.512;2022-08-19T10:13:15;9.32;;;7.63;;
44116;SDS011;29781;49.480;8.512;2022-08-19T10:15:42;7.00;;;6.32;;
44116;SDS011;29781;49.480;8.512;2022-08-19T10:18:08;8.70;;;7.80;;
44116;SDS011;29781;49.480;8.512;2022-08-19T10:20:34;9.43;;;7.95;;
44116;SDS011;29781;49.480;8.512;2022-08-19T10:23:01;8.30;;;7.50;;
44116;SDS011;29781;49.480;8.512;2022-08-19T10:25:28;8.23;;;7.47;;
44116;SDS011;29781;49.480;8.512;2022-08-19T10:27:53;9.60;;;7.55;;
44116;SDS011;29781;49.480;8.512;2022-08-19T10:30:19;8.43;;;7.15;;
44116;SDS011;29781;49.480;8.512;2022-08-19T10:32:45;8.55;;;7.10;;
44116;SDS011;29781;49.480;8.512;2022-08-19T10:35:11;7.85;;;6.70;;
44116;SDS011;29781;49.480;8.512;2022-08-19T10:37:38;8.55;;;7.60;;
44116;SDS011;29781;49.480;8.512;2022-08-19T10:40:05;10.65;;;7.82;;
44116;SDS011;29781;49.480;8.512;2022-08-19T10:42:32;13.38;;;8.95;;
44116;SDS011;29781;49.480;8.512;2022-08-19T10:45:01;11.57;;;10.32;;
44116;SDS011;29781;49.480;8.512;2022-08-19T10:47:28;9.02;;;8.15;;
44116;SDS011;29781;49.480;8.512;2022-08-19T10:49:53;9.38;;;8.38;;
44116;SDS011;29781;49.480;8.512;2022-08-19T10:52:42;10.18;;;9.20;;
44116;SDS011;29781;49.480;8.512;2022-08-19T10:55:10;11.35;;;10.07;;
44116;SDS011;29781;49.480;8.512;2022-08-19T10:57:55;11.73;;;10.30;;
44116;SDS011;29781;49.480;8.512;2022-08-19T11:00:21;11.35;;;10.35;;
44116;SDS011;29781;49.480;8.512;2022-08-19T11:02:48;11.98;;;10.88;;
44116;SDS011;29781;49.480;8.512;2022-08-19T11:05:14;12.57;;;11.48;;
44116;SDS011;29781;49.480;8.512;2022-08-19T11:07:40;13.02;;;11.77;;
44116;SDS011;29781;49.480;8.512;2022-08-19T11:10:07;11.90;;;10.80;;
44116;SDS011;29781;49.480;8.512;2022-08-19T11:12:38;12.32;;;10.95;;
44116;SDS011;29781;49.480;8.512;2022-08-19T11:15:05;11.88;;;10.77;;
44116;SDS011;29781;49.480;8.512;2022-08-19T11:17:36;10.77;;;9.77;;
44116;SDS011;29781;49.480;8.512;2022-08-19T11:20:05;11.43;;;10.18;;
44116;SDS011;29781;49.480;8.512;2022-08-19T11:22:31;11.45;;;10.45;;
44116;SDS011;29781;49.480;8.512;2022-08-19T11:24:57;10.98;;;9.88;;
44116;SDS011;29781;49.480;8.512;2022-08-19T11:27:23;13.80;;;10.52;;
44116;SDS011;29781;49.480;8.512;2022-08-19T11:29:48;15.32;;;9.10;;
44116;SDS011;29781;49.480;8.512;2022-08-19T11:32:14;9.35;;;8.45;;
44116;SDS011;29781;49.480;8.512;2022-08-19T11:34:41;9.20;;;8.40;;
44116;SDS011;29781;49.480;8.512;2022-08-19T11:37:06;9.52;;;8.63;;
44116;SDS011;29781;49.480;8.512;2022-08-19T11:39:34;10.45;;;7.70;;
44116;SDS011;29781;49.480;8.512;2022-08-19T11:42:02;8.73;;;7.82;;
44116;SDS011;29781;49.480;8.512;2022-08-19T11:44:48;9.77;;;8.77;;
44116;SDS011;29781;49.480;8.512;2022-08-19T11:47:14;8.52;;;7.50;;
44116;SDS011;29781;49.480;8.512;2022-08-19T11:49:40;9.40;;;7.80;;
44116;SDS011;29781;49.480;8.512;2022-08-19T11:52:07;9.05;;;8.15;;
44116;SDS011;29781;49.480;8.512;2022-08-19T11:54:33;9.63;;;7.45;;
44116;SDS011;29781;49.480;8.512;2022-08-19T11:56:58;9.25;;;7.90;;
44116;SDS011;29781;49.480;8.512;2022-08-19T11:59:26;8.57;;;7.78;;
44116;SDS011;29781;49.480;8.512;2022-08-19T12:01:52;9.00;;;8.20;;
44116;SDS011;29781;49.480;8.512;2022-08-19T12:04:17;8.30;;;7.50;;
44116;SDS011;29781;49.480;8.512;2022-08-19T12:06:43;10.38;;;8.20;;
44116;SDS011;29781;49.480;8.512;2022-08-19T12:09:09;10.82;;;7.97;;
44116;SDS011;29781;49.480;8.512;2022-08-19T12:11:35;9.45;;;7.90;;
44116;SDS011;29781;49.480;8.512;2022-08-19T12:14:03;8.25;;;7.55;;
44116;SDS011;29781;49.480;8.512;2022-08-19T12:16:29;8.48;;;7.70;;
44116;SDS011;29781;49.480;8.512;2022-08-19T12:18:56;7.68;;;6.97;;
44116;SDS011;29781;49.480;8.512;2022-08-19T12:21:25;8.68;;;7.88;;
44116;SDS011;29781;49.480;8.512;2022-08-19T12:23:55;7.50;;;6.80;;
44116;SDS011;29781;49.480;8.512;2022-08-19T12:26:22;7.70;;;7.10;;
44116;SDS011;29781;49.480;8.512;2022-08-19T12:28:49;7.15;;;6.50;;
44116;SDS011;29781;49.480;8.512;2022-08-19T12:31:15;6.63;;;6.13;;
44116;SDS011;29781;49.480;8.512;2022-08-19T12:33:42;6.50;;;6.00;;
44116;SDS011;29781;49.480;8.512;2022-08-19T12:36:09;6.20;;;5.60;;
44116;SDS011;29781;49.480;8.512;2022-08-19T12:38:36;6.30;;;5.88;;
44116;SDS011;29781;49.480;8.512;2022-08-19T12:41:02;6.00;;;5.53;;
44116;SDS011;29781;49.480;8.512;2022-08-19T12:43:31;8.57;;;6.07;;
44116;SDS011;29781;49.480;8.512;2022-08-19T12:45:57;6.07;;;5.57;;
44116;SDS011;29781;49.480;8.512;2022-08-19T12:48:23;5.85;;;5.40;;
44116;SDS011;29781;49.480;8.512;2022-08-19T12:50:49;5.53;;;4.82;;
44116;SDS011;29781;49.480;8.512;2022-08-19T12:53:14;5.63;;;4.90;;
44116;SDS011;29781;49.480;8.512;2022-08-19T12:55:40;6.35;;;5.72;;
44116;SDS011;29781;49.480;8.512;2022-08-19T12:58:07;5.60;;;5.20;;
44116;SDS011;29781;49.480;8.512;2022-08-19T13:00:33;6.22;;;5.60;;
44116;SDS011;29781;49.480;8.512;2022-08-19T13:02:59;6.00;;;5.50;;
44116;SDS011;29781;49.480;8.512;2022-08-19T13:05:26;6.25;;;5.70;;
44116;SDS011;29781;49.480;8.512;2022-08-19T13:07:55;6.50;;;5.50;;
44116;SDS011;29781;49.480;8.512;2022-08-19T13:10:23;9.60;;;5.53;;
44116;SDS011;29781;49.480;8.512;2022-08-19T13:12:52;6.65;;;5.65;;
44116;SDS011;29781;49.480;8.512;2022-08-19T13:15:19;6.00;;;5.50;;
44116;SDS011;29781;49.480;8.512;2022-08-19T13:17:47;5.53;;;4.80;;
44116;SDS011;29781;49.480;8.512;2022-08-19T13:20:15;5.90;;;5.40;;
44116;SDS011;29781;49.480;8.512;2022-08-19T13:22:43;5.88;;;5.38;;
44116;SDS011;29781;49.480;8.512;2022-08-19T13:25:10;6.53;;;5.25;;
44116;SDS011;29781;49.480;8.512;2022-08-19T13:27:37;5.93;;;5.30;;
44116;SDS011;29781;49.480;8.512;2022-08-19T13:30:04;5.90;;;5.07;;
44116;SDS011;29781;49.480;8.512;2022-08-19T13:32:51;5.85;;;5.35;;
44116;SDS011;29781;49.480;8.512;2022-08-19T13:35:35;6.60;;;5.55;;
44116;SDS011;29781;49.480;8.512;2022-08-19T13:38:01;6.00;;;5.20;;
44116;SDS011;29781;49.480;8.512;2022-08-19T13:40:29;5.97;;;5.47;;
44116;SDS011;29781;49.480;8.512;2022-08-19T13:42:58;8.35;;;5.50;;
44116;SDS011;29781;49.480;8.512;2022-08-19T13:45:26;5.80;;;5.35;;
44116;SDS011;29781;49.480;8.512;2022-08-19T13:47:53;6.18;;;5.57;;
44116;SDS011;29781;49.480;8.512;2022-08-19T13:50:23;6.97;;;5.55;;
44116;SDS011;29781;49.480;8.512;2022-08-19T13:52:50;5.88;;;5.30;;
44116;SDS011;29781;49.480;8.512;2022-08-19T13:55:17;6.20;;;5.10;;
44116;SDS011;29781;49.480;8.512;2022-08-19T13:57:43;7.20;;;4.95;;
44116;SDS011;29781;49.480;8.512;2022-08-19T14:00:10;6.07;;;5.55;;
44116;SDS011;29781;49.480;8.512;2022-08-19T14:02:43;7.13;;;5.20;;
44116;SDS011;29781;49.480;8.512;2022-08-19T14:05:11;9.02;;;4.70;;
44116;SDS011;29781;49.480;8.512;2022-08-19T14:07:38;10.02;;;4.97;;
44116;SDS011;29781;49.480;8.512;2022-08-19T14:10:04;5.38;;;4.88;;
44116;SDS011;29781;49.480;8.512;2022-08-19T14:12:32;5.88;;;4.95;;
44116;SDS011;29781;49.480;8.512;2022-08-19T14:14:58;5.03;;;4.60;;
44116;SDS011;29781;49.480;8.512;2022-08-19T14:17:24;4.97;;;4.57;;
44116;SDS011;29781;49.480;8.512;2022-08-19T14:19:57;5.45;;;4.13;;
44116;SDS011;29781;49.480;8.512;2022-08-19T14:22:25;6.32;;;4.05;;
44116;SDS011;29781;49.480;8.512;2022-08-19T14:24:51;4.63;;;3.55;;
44116;SDS011;29781;49.480;8.512;2022-08-19T14:27:17;5.85;;;3.78;;
44116;SDS011;29781;49.480;8.512;2022-08-19T14:29:42;6.28;;;4.30;;
44116;SDS011;29781;49.480;8.512;2022-08-19T14:32:09;4.95;;;3.70;;
44116;SDS011;29781;49.480;8.512;2022-08-19T14:34:35;3.95;;;3.60;;
44116;SDS011;29781;49.480;8.512;2022-08-19T14:37:02;4.03;;;3.63;;
44116;SDS011;29781;49.480;8.512;2022-08-19T14:39:28;4.10;;;3.70;;
44116;SDS011;29781;49.480;8.512;2022-08-19T14:41:53;4.05;;;3.60;;
44116;SDS011;29781;49.480;8.512;2022-08-19T14:44:19;6.57;;;3.40;;
44116;SDS011;29781;49.480;8.512;2022-08-19T14:46:45;3.83;;;3.53;;
44116;SDS011;29781;49.480;8.512;2022-08-19T14:49:11;7.07;;;3.75;;
44116;SDS011;29781;49.480;8.512;2022-08-19T14:51:37;7.47;;;3.80;;
44116;SDS011;29781;49.480;8.512;2022-08-19T14:54:03;3.83;;;3.58;;
44116;SDS011;29781;49.480;8.512;2022-08-19T14:56:29;6.72;;;3.65;;
44116;SDS011;29781;49.480;8.512;2022-08-19T14:58:55;3.50;;;3.28;;